Disclaimer

Please do not use the information listed here in-flight or in-navigation, as they are not provided to us by the airports but are provided by volunteers, so they might be outdated.

Search


Regions


Airport information page

Radio informations:
Tower (TWR) - 118.0 MHz
RDO - 126.9 MHz
Ground (GND) - 121.7 MHz
Clearance delivery - 121.25 MHz
Automatic Terminal Information Service (ATIS) - 127.6 MHz
Approach (APP) - 119.9 MHz

Airport informations:
Latitude: 13° 26' 27.41" N
Longitude: 089° 03' 20.62" W
Elevation: 101 feet - 31 meters
Operating hours: Remarks
Operating agency: Military-civil joint use airport
Timezone: UTC-6
Fuel: N/A

Runway information:
07/25 - 10500 x 148 feet< - >3200 x 45 meters
18/36 - 2625 x 75 feet< - >800 x 23 meters

Recent METARs:
MSLP 191550Z 04007KT 010V070 CAVOK 32/21 Q1012 A2990 NOSIG
MSLP 191550Z 04007KT 010V070 CAVOK 32/21 Q1012 A2990 NOSIG
MSLP 191650Z 03007KT 350V060 CAVOK 33/22 Q1011 A2988 NOSIG

Airport on the map: